createdAt,value
2023-02-21T00:00:40.562Z,596.00
2023-02-21T00:01:40.557Z,599.00
2023-02-21T00:02:40.588Z,598.00
2023-02-21T00:03:40.538Z,596.00
2023-02-21T00:04:40.533Z,593.00
2023-02-21T00:05:40.688Z,594.00
2023-02-21T00:06:40.512Z,598.00
2023-02-21T00:07:40.506Z,597.00
2023-02-21T00:55:31.283Z,572.00
2023-02-21T00:56:32.247Z,571.00
2023-02-21T00:57:32.242Z,570.00
2023-02-21T00:58:32.226Z,569.00
2023-02-21T00:59:32.226Z,568.00
2023-02-21T01:00:32.209Z,570.00
2023-02-21T01:01:32.265Z,573.00
2023-02-21T01:02:32.191Z,575.00
2023-02-21T01:03:32.183Z,574.00
2023-02-21T01:04:32.204Z,570.00
2023-02-21T01:05:32.166Z,570.00
2023-02-21T01:06:32.160Z,569.00
2023-02-21T01:07:32.146Z,570.00
2023-02-21T01:08:32.141Z,570.00
2023-02-21T01:09:32.126Z,569.00
2023-02-21T01:10:32.117Z,567.00
2023-02-21T01:11:32.136Z,564.00
2023-02-21T01:12:32.103Z,562.00
2023-02-21T01:13:32.098Z,560.00
2023-02-21T01:14:32.104Z,562.00
2023-02-21T01:15:32.097Z,562.00
2023-02-21T01:16:32.059Z,560.00
2023-02-21T01:17:32.055Z,558.00
2023-02-21T01:18:32.050Z,559.00
2023-02-21T01:19:32.039Z,557.00
2023-02-21T01:20:32.029Z,559.00
2023-02-21T01:21:32.020Z,555.00
2023-02-21T01:22:32.005Z,557.00
2023-02-21T01:23:32.013Z,557.00
2023-02-21T01:24:31.995Z,559.00
2023-02-21T01:25:31.984Z,561.00
2023-02-21T01:26:31.992Z,565.00
2023-02-21T01:27:32.001Z,565.00
2023-02-21T01:28:31.960Z,563.00
2023-02-21T01:29:31.945Z,563.00
2023-02-21T01:30:31.980Z,560.00
2023-02-21T01:31:32.005Z,557.00
2023-02-21T01:32:31.980Z,559.00
2023-02-21T01:33:31.906Z,557.00
2023-02-21T01:34:31.900Z,555.00
2023-02-21T01:35:31.897Z,555.00
2023-02-21T01:36:32.146Z,557.00
2023-02-21T01:37:31.874Z,553.00
2023-02-21T01:38:31.861Z,553.00
2023-02-21T01:39:31.849Z,551.00
2023-02-21T01:40:31.845Z,552.00
2023-02-21T01:41:31.833Z,552.00
2023-02-21T01:42:31.835Z,551.00
2023-02-21T01:43:31.840Z,556.00
2023-02-21T01:44:31.802Z,558.00
2023-02-21T01:45:31.799Z,559.00
2023-02-21T01:46:31.856Z,562.00
2023-02-21T01:47:31.776Z,561.00
2023-02-21T01:48:31.767Z,560.00
2023-02-21T01:49:31.760Z,561.00
2023-02-21T01:50:31.773Z,562.00
2023-02-21T01:51:31.736Z,562.00
2023-02-21T01:52:31.728Z,558.00
2023-02-21T01:53:31.719Z,558.00
2023-02-21T01:54:31.714Z,559.00
2023-02-21T01:55:31.709Z,557.00
2023-02-21T01:56:31.693Z,554.00
2023-02-21T01:57:32.356Z,553.00
2023-02-21T01:58:31.671Z,554.00
2023-02-21T01:59:31.683Z,553.00
2023-02-21T02:00:31.646Z,553.00
2023-02-21T02:01:31.679Z,553.00
2023-02-21T02:02:31.638Z,553.00
2023-02-21T02:03:31.626Z,551.00
2023-02-21T02:04:31.851Z,553.00
2023-02-21T02:05:31.605Z,549.00
2023-02-21T02:06:31.606Z,551.00
2023-02-21T02:07:31.590Z,550.00
2023-02-21T02:08:31.581Z,553.00
2023-02-21T02:09:31.579Z,553.00
2023-02-21T02:10:31.569Z,551.00
2023-02-21T02:11:31.553Z,553.00
2023-02-21T02:12:31.542Z,553.00
2023-02-21T02:13:32.158Z,551.00
2023-02-21T02:14:31.519Z,552.00
2023-02-21T02:15:31.536Z,553.00
2023-02-21T02:16:31.500Z,550.00
2023-02-21T02:17:31.491Z,551.00
2023-02-21T02:18:31.479Z,553.00
2023-02-21T02:19:31.620Z,553.00
2023-02-21T02:20:31.462Z,552.00
2023-02-21T02:21:31.450Z,552.00
2023-02-21T02:22:31.439Z,553.00
2023-02-21T02:23:31.430Z,551.00
2023-02-21T02:24:31.426Z,554.00
2023-02-21T02:25:31.423Z,553.00
2023-02-21T02:26:31.408Z,555.00
2023-02-21T02:27:31.393Z,553.00
2023-02-21T02:28:31.381Z,555.00
2023-02-21T02:29:31.372Z,556.00
2023-02-21T02:30:31.411Z,557.00
2023-02-21T02:31:31.545Z,555.00
2023-02-21T02:32:31.351Z,556.00
2023-02-21T02:33:31.338Z,555.00
2023-02-21T02:34:31.335Z,557.00
2023-02-21T02:35:31.315Z,556.00
2023-02-21T02:36:31.322Z,557.00
2023-02-21T02:37:31.299Z,552.00
2023-02-21T02:38:31.287Z,553.00
2023-02-21T02:39:31.288Z,554.00
2023-02-21T02:40:31.272Z,552.00
2023-02-21T02:41:31.272Z,552.00
2023-02-21T02:42:31.252Z,549.00
2023-02-21T02:43:31.247Z,550.00
2023-02-21T02:44:31.237Z,551.00
2023-02-21T02:45:31.225Z,551.00
2023-02-21T02:46:31.281Z,549.00
2023-02-21T02:47:31.238Z,548.00
2023-02-21T02:48:31.203Z,548.00
2023-02-21T02:49:31.187Z,548.00
2023-02-21T02:50:31.175Z,548.00
2023-02-21T02:51:31.168Z,546.00
2023-02-21T02:52:31.166Z,546.00
2023-02-21T02:53:31.149Z,548.00
2023-02-21T02:54:31.146Z,550.00
2023-02-21T02:55:31.130Z,550.00
2023-02-21T02:56:31.169Z,551.00
2023-02-21T02:57:31.111Z,551.00
2023-02-21T02:58:31.105Z,546.00
2023-02-21T02:59:31.090Z,542.00
2023-02-21T03:00:31.081Z,539.00
2023-02-21T03:01:31.149Z,542.00
2023-02-21T03:02:31.067Z,543.00
2023-02-21T03:03:31.177Z,541.00
2023-02-21T03:04:31.049Z,538.00
2023-02-21T03:05:31.034Z,543.00
2023-02-21T03:06:31.034Z,541.00
2023-02-21T03:07:31.017Z,540.00
2023-02-21T03:08:31.015Z,541.00
2023-02-21T03:09:31.002Z,541.00
2023-02-21T03:10:30.989Z,539.00
2023-02-21T03:11:30.981Z,538.00
2023-02-21T03:12:30.966Z,540.00
2023-02-21T03:13:30.960Z,541.00
2023-02-21T03:14:30.951Z,541.00
2023-02-21T03:15:30.948Z,544.00
2023-02-21T03:16:30.936Z,541.00
2023-02-21T03:17:30.921Z,542.00
2023-02-21T03:18:30.914Z,545.00
2023-02-21T03:19:30.924Z,545.00
2023-02-21T03:20:30.895Z,545.00
2023-02-21T03:21:30.884Z,547.00
2023-02-21T03:22:30.870Z,546.00
2023-02-21T03:23:30.864Z,545.00
2023-02-21T03:24:30.853Z,543.00
2023-02-21T03:25:30.855Z,544.00
2023-02-21T03:26:30.838Z,542.00
2023-02-21T03:27:30.826Z,543.00
2023-02-21T03:28:30.819Z,542.00
2023-02-21T03:29:30.824Z,539.00
2023-02-21T03:30:30.869Z,541.00
2023-02-21T03:31:30.913Z,541.00
2023-02-21T03:32:30.794Z,541.00
2023-02-21T03:33:30.771Z,542.00
2023-02-21T03:34:30.769Z,540.00
2023-02-21T03:35:30.774Z,539.00
2023-02-21T03:36:30.743Z,540.00
2023-02-21T03:37:30.756Z,540.00
2023-02-21T03:38:30.721Z,542.00
2023-02-21T03:39:30.713Z,543.00
2023-02-21T03:40:30.704Z,538.00
2023-02-21T03:41:30.692Z,537.00
2023-02-21T03:42:30.697Z,538.00
2023-02-21T03:43:30.674Z,536.00
2023-02-21T03:44:30.663Z,537.00
2023-02-21T03:45:30.671Z,538.00
2023-02-21T03:46:30.700Z,536.00
2023-02-21T03:47:30.648Z,535.00
2023-02-21T03:48:32.665Z,533.00
2023-02-21T03:49:30.635Z,534.00
2023-02-21T03:50:30.616Z,535.00
2023-02-21T03:51:30.627Z,535.00
2023-02-21T03:52:30.597Z,532.00
2023-02-21T03:53:30.606Z,531.00
2023-02-21T03:54:30.584Z,532.00
2023-02-21T03:55:30.592Z,534.00
2023-02-21T03:56:41.568Z,535.00
2023-02-21T03:57:30.555Z,533.00
2023-02-21T03:58:30.539Z,533.00
2023-02-21T03:59:30.611Z,538.00
2023-02-21T04:00:30.518Z,541.00
2023-02-21T04:01:30.511Z,538.00
2023-02-21T04:02:30.521Z,536.00
2023-02-21T04:03:30.504Z,536.00
2023-02-21T04:04:30.498Z,534.00
2023-02-21T04:05:30.498Z,537.00
2023-02-21T04:06:30.493Z,535.00
2023-02-21T04:07:30.484Z,533.00
2023-02-21T04:08:30.466Z,533.00
2023-02-21T04:09:30.436Z,537.00
2023-02-21T04:10:32.481Z,536.00
2023-02-21T04:11:30.427Z,537.00
2023-02-21T04:12:30.406Z,538.00
2023-02-21T04:13:30.400Z,533.00
2023-02-21T04:14:30.392Z,531.00
2023-02-21T04:15:30.384Z,529.00
2023-02-21T04:16:30.450Z,530.00
2023-02-21T04:17:30.369Z,531.00
2023-02-21T04:18:30.367Z,531.00
2023-02-21T04:19:30.346Z,530.00
2023-02-21T04:20:30.341Z,532.00
2023-02-21T04:21:30.326Z,532.00
2023-02-21T04:22:30.318Z,531.00
2023-02-21T04:23:30.425Z,531.00
2023-02-21T04:24:30.347Z,529.00
2023-02-21T04:25:30.346Z,532.00
2023-02-21T04:26:30.276Z,532.00
2023-02-21T04:27:30.284Z,533.00
2023-02-21T04:28:30.291Z,533.00
2023-02-21T04:29:30.281Z,533.00
2023-02-21T04:30:30.306Z,533.00
2023-02-21T04:31:30.352Z,532.00
2023-02-21T04:32:30.318Z,531.00
2023-02-21T04:33:30.224Z,529.00
2023-02-21T04:34:30.225Z,529.00
2023-02-21T04:35:30.214Z,529.00
2023-02-21T04:36:30.195Z,533.00
2023-02-21T04:37:30.487Z,535.00
2023-02-21T04:38:30.189Z,535.00
2023-02-21T04:39:30.212Z,533.00
2023-02-21T04:40:30.160Z,532.00
2023-02-21T04:41:30.151Z,530.00
2023-02-21T04:42:30.167Z,529.00
2023-02-21T04:43:30.147Z,526.00
2023-02-21T04:44:30.123Z,524.00
2023-02-21T04:45:30.176Z,524.00
2023-02-21T04:46:30.114Z,527.00
2023-02-21T04:47:30.104Z,526.00
2023-02-21T04:48:30.093Z,529.00
2023-02-21T04:49:30.076Z,527.00
2023-02-21T04:50:30.067Z,528.00
2023-02-21T04:51:30.073Z,528.00
2023-02-21T04:52:30.050Z,529.00
2023-02-21T04:53:30.028Z,528.00
2023-02-21T04:54:30.047Z,526.00
2023-02-21T04:55:30.060Z,529.00
2023-02-21T04:56:30.090Z,531.00
2023-02-21T04:57:29.998Z,529.00
2023-02-21T04:58:39.688Z,529.00
2023-02-21T04:59:29.990Z,529.00
2023-02-21T05:00:29.971Z,529.00
2023-02-21T05:01:30.063Z,526.00
2023-02-21T05:02:29.953Z,525.00
2023-02-21T05:03:29.935Z,527.00
2023-02-21T05:04:29.955Z,527.00
2023-02-21T05:05:29.935Z,528.00
2023-02-21T05:06:29.896Z,529.00
2023-02-21T05:07:29.898Z,528.00
2023-02-21T05:08:29.905Z,528.00
2023-02-21T05:09:29.864Z,525.00
2023-02-21T05:10:44.700Z,525.00
2023-02-21T05:11:29.895Z,522.00
2023-02-21T05:12:29.843Z,520.00
2023-02-21T05:13:29.846Z,522.00
2023-02-21T05:14:29.841Z,520.00
2023-02-21T05:15:29.814Z,520.00
2023-02-21T05:16:29.849Z,520.00
2023-02-21T05:17:29.791Z,519.00
2023-02-21T05:18:29.804Z,520.00
2023-02-21T05:19:29.777Z,519.00
2023-02-21T05:20:29.768Z,518.00
2023-02-21T05:21:29.760Z,518.00
2023-02-21T05:22:29.749Z,521.00
2023-02-21T05:24:29.731Z,522.00
2023-02-21T05:25:29.715Z,523.00
2023-02-21T05:26:29.708Z,522.00
2023-02-21T05:27:30.469Z,525.00
2023-02-21T05:28:29.695Z,521.00
2023-02-21T05:29:29.756Z,522.00
2023-02-21T05:30:29.790Z,522.00
2023-02-21T05:31:29.743Z,523.00
2023-02-21T05:32:29.657Z,524.00
2023-02-21T05:33:29.647Z,519.00
2023-02-21T05:34:29.635Z,517.00
2023-02-21T05:35:30.452Z,515.00
2023-02-21T05:36:29.615Z,516.00
2023-02-21T05:37:31.486Z,515.00
2023-02-21T05:38:30.455Z,517.00
2023-02-21T05:39:29.622Z,519.00
2023-02-21T05:40:29.576Z,518.00
2023-02-21T05:41:29.581Z,517.00
2023-02-21T05:42:29.565Z,518.00
2023-02-21T05:43:29.581Z,520.00
2023-02-21T05:44:29.544Z,519.00
2023-02-21T05:45:29.558Z,518.00
2023-02-21T05:46:29.555Z,521.00
2023-02-21T05:47:29.511Z,524.00
2023-02-21T05:48:29.508Z,525.00
2023-02-21T05:49:29.497Z,527.00
2023-02-21T05:50:29.484Z,524.00
2023-02-21T05:51:29.477Z,524.00
2023-02-21T05:52:29.471Z,523.00
2023-02-21T05:53:29.452Z,526.00
2023-02-21T05:54:29.959Z,524.00
2023-02-21T05:55:29.436Z,524.00
2023-02-21T05:56:29.430Z,525.00
2023-02-21T05:57:29.414Z,523.00
2023-02-21T05:58:29.408Z,522.00
2023-02-21T05:59:29.423Z,524.00
2023-02-21T06:00:29.403Z,524.00
2023-02-21T06:01:29.380Z,523.00
2023-02-21T06:02:29.409Z,524.00
2023-02-21T06:03:30.056Z,525.00
2023-02-21T06:04:29.352Z,525.00
2023-02-21T06:05:29.344Z,524.00
2023-02-21T06:06:29.355Z,522.00
2023-02-21T06:08:29.304Z,524.00
2023-02-21T06:09:29.297Z,525.00
2023-02-21T06:10:29.290Z,526.00
2023-02-21T06:11:29.960Z,526.00
2023-02-21T06:12:29.265Z,524.00
2023-02-21T06:13:30.013Z,523.00
2023-02-21T06:14:29.367Z,520.00
2023-02-21T06:15:29.337Z,521.00
2023-02-21T06:17:29.308Z,523.00
2023-02-21T06:18:29.969Z,525.00
2023-02-21T06:19:29.279Z,524.00
2023-02-21T06:21:29.259Z,524.00
2023-02-21T06:22:29.480Z,525.00
2023-02-21T06:23:29.683Z,527.00
2023-02-21T06:24:29.217Z,534.00
2023-02-21T06:25:29.216Z,537.00
2023-02-21T06:27:29.198Z,547.00
2023-02-21T06:28:29.215Z,553.00
2023-02-21T06:29:32.360Z,556.00
2023-02-21T06:30:29.227Z,563.00
2023-02-21T06:31:29.201Z,566.00
2023-02-21T06:32:29.143Z,569.00
2023-02-21T06:33:29.146Z,577.00
2023-02-21T06:34:29.129Z,580.00
2023-02-21T06:35:29.118Z,578.00
2023-02-21T06:36:29.127Z,584.00
2023-02-21T06:37:29.103Z,590.00
2023-02-21T06:38:29.153Z,590.00
2023-02-21T06:39:29.093Z,593.00
2023-02-21T06:40:29.074Z,596.00
2023-02-21T06:42:29.062Z,602.00
2023-02-21T06:43:29.051Z,606.00
2023-02-21T06:45:29.028Z,625.00
2023-02-21T06:46:29.216Z,641.00
2023-02-21T06:47:29.051Z,640.00
2023-02-21T06:48:29.996Z,643.00
2023-02-21T06:50:28.990Z,652.00
2023-02-21T06:51:29.069Z,656.00
2023-02-21T06:52:28.959Z,667.00
2023-02-21T06:53:28.956Z,667.00
2023-02-21T06:54:29.017Z,676.00
2023-02-21T06:55:28.938Z,708.00
2023-02-21T06:56:28.970Z,734.00
2023-02-21T06:57:28.919Z,738.00
2023-02-21T06:58:29.906Z,738.00
2023-02-21T06:59:29.099Z,755.00
2023-02-21T07:00:28.894Z,760.00
2023-02-21T07:01:28.932Z,757.00
2023-02-21T07:02:29.015Z,752.00
2023-02-21T07:03:28.906Z,746.00
2023-02-21T07:05:28.857Z,739.00
2023-02-21T07:07:29.019Z,739.00
2023-02-21T07:08:28.810Z,739.00
2023-02-21T07:09:28.803Z,738.00
2023-02-21T07:10:29.229Z,738.00
2023-02-21T07:11:28.785Z,739.00
2023-02-21T07:12:29.040Z,738.00
2023-02-21T07:13:30.489Z,734.00
2023-02-21T07:19:28.943Z,746.00
2023-02-21T07:20:29.023Z,750.00
2023-02-21T07:21:28.897Z,750.00
2023-02-21T07:22:29.277Z,748.00
2023-02-21T07:23:28.890Z,750.00
2023-02-21T07:24:28.876Z,752.00
2023-02-21T07:25:28.865Z,755.00
2023-02-21T07:26:28.853Z,758.00
2023-02-21T07:27:28.856Z,757.00
2023-02-21T07:28:28.829Z,762.00
2023-02-21T07:29:29.012Z,766.00
2023-02-21T07:30:28.925Z,767.00
2023-02-21T07:31:28.834Z,769.00
2023-02-21T07:32:28.793Z,773.00
2023-02-21T07:33:28.800Z,778.00
2023-02-21T07:34:28.777Z,778.00
2023-02-21T07:35:29.199Z,790.00
2023-02-21T07:36:28.761Z,816.00
2023-02-21T07:37:29.009Z,840.00
2023-02-21T07:38:28.741Z,856.00
2023-02-21T07:39:28.974Z,875.00
2023-02-21T07:40:28.780Z,893.00
2023-02-21T07:41:29.071Z,911.00
2023-02-21T07:42:28.708Z,923.00
2023-02-21T07:43:28.708Z,944.00
2023-02-21T07:44:29.172Z,961.00
2023-02-21T07:45:28.679Z,981.00
2023-02-21T07:46:28.775Z,1000.00
2023-02-21T07:47:28.686Z,1007.00
2023-02-21T07:48:28.654Z,1014.00
2023-02-21T07:49:28.658Z,1025.00
2023-02-21T07:50:28.626Z,1067.00
2023-02-21T07:51:29.052Z,1086.00
2023-02-21T07:52:29.027Z,1123.00
2023-02-21T07:53:28.608Z,1126.00
2023-02-21T07:54:28.597Z,1129.00
2023-02-21T07:55:29.020Z,1135.00
2023-02-21T07:56:28.583Z,1177.00
2023-02-21T07:57:29.033Z,1190.00
2023-02-21T07:58:28.626Z,1202.00
2023-02-21T07:59:28.543Z,1219.00
2023-02-21T08:00:28.548Z,1232.00
2023-02-21T08:01:28.600Z,1247.00
2023-02-21T08:02:29.023Z,1262.00
2023-02-21T08:03:28.531Z,1286.00
2023-02-21T08:04:28.548Z,1306.00
2023-02-21T08:05:29.019Z,1318.00
2023-02-21T08:06:28.505Z,1327.00
2023-02-21T08:07:29.042Z,1338.00
2023-02-21T08:08:28.478Z,1349.00
2023-02-21T08:09:28.470Z,1358.00
2023-02-21T08:10:28.762Z,1374.00
2023-02-21T08:11:28.928Z,1395.00
2023-02-21T08:12:28.532Z,1410.00
2023-02-21T08:13:28.419Z,1436.00
2023-02-21T08:14:28.468Z,1450.00
2023-02-21T08:15:28.401Z,1472.00
2023-02-21T08:16:28.577Z,1485.00
2023-02-21T08:17:28.381Z,1500.00
2023-02-21T08:18:28.368Z,1511.00
2023-02-21T08:19:29.037Z,1520.00
2023-02-21T08:20:28.346Z,1526.00
2023-02-21T08:21:28.344Z,1537.00
2023-02-21T08:22:28.603Z,1542.00
2023-02-21T08:23:28.344Z,1548.00
2023-02-21T08:24:28.617Z,1561.00
2023-02-21T08:25:28.520Z,1585.00
2023-02-21T08:26:28.384Z,1595.00
2023-02-21T08:27:28.634Z,1602.00
2023-02-21T08:28:28.643Z,1616.00
2023-02-21T08:29:28.270Z,1627.00
2023-02-21T08:30:28.302Z,1637.00
2023-02-21T08:31:28.307Z,1656.00
2023-02-21T08:32:28.619Z,1661.00
2023-02-21T08:33:30.084Z,1626.00
2023-02-21T08:34:28.232Z,1599.00
2023-02-21T08:35:28.214Z,1593.00
2023-02-21T08:36:28.199Z,1585.00
2023-02-21T08:37:28.533Z,1595.00
2023-02-21T08:38:28.175Z,1608.00
2023-02-21T08:39:28.227Z,1621.00
2023-02-21T08:40:28.178Z,1643.00
2023-02-21T08:41:28.175Z,1704.00
2023-02-21T08:42:28.562Z,1706.00
2023-02-21T08:43:29.253Z,1717.00
2023-02-21T08:44:28.134Z,1728.00
2023-02-21T08:45:28.122Z,1734.00
2023-02-21T08:46:28.180Z,1746.00
2023-02-21T08:47:28.107Z,1756.00
2023-02-21T08:48:28.540Z,1781.00
2023-02-21T08:49:28.072Z,1810.00
2023-02-21T08:50:28.114Z,1822.00
2023-02-21T08:51:28.565Z,1835.00
2023-02-21T08:52:29.066Z,1846.00
2023-02-21T08:53:28.535Z,1867.00
2023-02-21T08:54:28.034Z,1876.00
2023-02-21T08:55:28.053Z,1896.00
2023-02-21T08:56:28.024Z,1902.00
2023-02-21T08:57:28.008Z,1912.00
2023-02-21T08:58:28.057Z,1926.00
2023-02-21T08:59:28.193Z,1940.00
2023-02-21T09:01:28.081Z,1696.00
2023-02-21T09:02:27.981Z,1529.00
2023-02-21T09:03:28.145Z,1424.00
2023-02-21T09:04:27.959Z,1396.00
2023-02-21T09:05:27.942Z,1380.00
2023-02-21T09:06:27.926Z,1373.00
2023-02-21T09:07:27.920Z,1351.00
2023-02-21T09:08:27.909Z,1298.00
2023-02-21T09:09:27.908Z,1305.00
2023-02-21T09:10:27.978Z,1308.00
2023-02-21T09:11:27.921Z,1314.00
2023-02-21T09:12:27.870Z,1311.00
2023-02-21T09:13:28.059Z,1293.00
2023-02-21T09:14:27.847Z,1198.00
2023-02-21T09:15:27.846Z,1194.00
2023-02-21T09:16:28.115Z,1208.00
2023-02-21T09:17:27.842Z,1206.00
2023-02-21T09:18:27.818Z,1179.00
2023-02-21T09:19:27.809Z,1175.00
2023-02-21T09:20:27.803Z,1142.00
2023-02-21T09:21:27.837Z,1137.00
2023-02-21T09:22:27.788Z,1127.00
2023-02-21T09:23:28.258Z,1119.00
2023-02-21T09:24:27.769Z,1105.00
2023-02-21T09:25:27.756Z,1027.00
2023-02-21T09:26:28.066Z,1014.00
2023-02-21T09:27:27.761Z,1014.00
2023-02-21T09:28:27.727Z,1025.00
2023-02-21T09:29:31.616Z,1030.00
2023-02-21T09:30:28.085Z,1030.00
2023-02-21T09:31:27.783Z,1031.00
2023-02-21T09:32:27.800Z,1008.00
2023-02-21T09:33:27.688Z,1025.00
2023-02-21T09:34:28.096Z,1039.00
2023-02-21T09:35:27.661Z,1030.00
2023-02-21T09:36:27.693Z,1020.00
2023-02-21T09:37:27.640Z,1001.00
2023-02-21T09:38:27.635Z,950.00
2023-02-21T09:39:28.068Z,934.00
2023-02-21T09:40:28.077Z,953.00
2023-02-21T09:41:27.605Z,961.00
2023-02-21T09:42:27.614Z,973.00
2023-02-21T09:43:27.611Z,983.00
2023-02-21T09:44:27.603Z,1002.00
2023-02-21T09:45:29.110Z,1014.00
2023-02-21T09:46:28.612Z,1010.00
2023-02-21T09:47:27.615Z,921.00
2023-02-21T09:48:27.598Z,897.00
2023-02-21T09:49:27.591Z,873.00
2023-02-21T09:50:28.208Z,854.00
2023-02-21T09:51:27.557Z,864.00
2023-02-21T09:52:27.576Z,878.00
2023-02-21T09:53:27.547Z,886.00
2023-02-21T09:54:27.575Z,892.00
2023-02-21T09:55:29.662Z,900.00
2023-02-21T09:56:27.592Z,921.00
2023-02-21T09:57:27.537Z,931.00
2023-02-21T09:58:27.486Z,933.00
2023-02-21T09:59:27.502Z,929.00
2023-02-21T10:00:28.489Z,922.00
2023-02-21T10:01:27.672Z,929.00
2023-02-21T10:02:27.444Z,927.00
2023-02-21T10:03:27.454Z,924.00
2023-02-21T10:04:27.495Z,922.00
2023-02-21T10:05:27.601Z,930.00
2023-02-21T10:06:27.435Z,947.00
2023-02-21T10:07:27.407Z,946.00
2023-02-21T10:08:28.380Z,947.00
2023-02-21T10:09:27.388Z,950.00
2023-02-21T10:10:27.584Z,952.00
2023-02-21T10:11:27.369Z,962.00
2023-02-21T10:12:27.358Z,971.00
2023-02-21T10:13:27.357Z,978.00
2023-02-21T10:14:27.334Z,987.00
2023-02-21T10:15:27.602Z,990.00
2023-02-21T10:16:27.637Z,993.00
2023-02-21T10:17:27.316Z,994.00
2023-02-21T10:18:27.293Z,993.00
2023-02-21T10:19:27.299Z,994.00
2023-02-21T10:20:27.284Z,994.00
2023-02-21T10:21:27.609Z,992.00
2023-02-21T10:22:27.265Z,992.00
2023-02-21T10:23:27.253Z,968.00
2023-02-21T10:24:27.250Z,964.00
2023-02-21T10:25:27.588Z,902.00
2023-02-21T10:26:27.223Z,842.00
2023-02-21T10:27:27.227Z,842.00
2023-02-21T10:28:27.209Z,849.00
2023-02-21T10:32:27.188Z,831.00
2023-02-21T10:33:27.159Z,819.00
2023-02-21T10:34:27.138Z,815.00
2023-02-21T10:35:27.130Z,803.00
2023-02-21T10:37:27.148Z,812.00
2023-02-21T10:38:27.105Z,819.00
2023-02-21T10:39:27.097Z,829.00
2023-02-21T10:40:27.098Z,835.00
2023-02-21T10:41:27.080Z,848.00
2023-02-21T10:43:27.054Z,902.00
2023-02-21T10:44:27.115Z,912.00
2023-02-21T10:45:27.037Z,911.00
2023-02-21T10:46:27.205Z,921.00
2023-02-21T10:47:27.056Z,931.00
2023-02-21T10:48:27.005Z,905.00
2023-02-21T10:49:27.663Z,891.00
2023-02-21T10:50:26.995Z,899.00
2023-02-21T10:51:27.187Z,901.00
2023-02-21T10:54:26.965Z,913.00
2023-02-21T10:55:33.102Z,918.00
2023-02-21T10:56:27.097Z,920.00
2023-02-21T10:57:27.099Z,927.00
2023-02-21T10:58:26.915Z,939.00
2023-02-21T10:59:26.908Z,948.00
2023-02-21T11:00:26.897Z,952.00
2023-02-21T11:01:27.224Z,953.00
2023-02-21T11:02:26.900Z,954.00
2023-02-21T11:03:26.898Z,941.00
2023-02-21T11:04:26.862Z,953.00
2023-02-21T11:05:26.856Z,953.00
2023-02-21T11:06:28.128Z,957.00
2023-02-21T11:07:26.834Z,958.00
2023-02-21T11:08:26.819Z,943.00
2023-02-21T11:09:26.854Z,939.00
2023-02-21T11:10:26.805Z,938.00
2023-02-21T11:11:27.151Z,946.00
2023-02-21T11:12:26.797Z,943.00
2023-02-21T11:13:26.776Z,946.00
2023-02-21T11:14:26.786Z,940.00
2023-02-21T11:15:26.759Z,942.00
2023-02-21T11:16:27.120Z,945.00
2023-02-21T11:17:26.747Z,941.00
2023-02-21T11:18:26.732Z,942.00
2023-02-21T11:19:27.134Z,931.00
2023-02-21T11:20:26.719Z,926.00
2023-02-21T11:21:27.118Z,929.00
2023-02-21T11:22:26.706Z,925.00
2023-02-21T11:23:26.687Z,918.00
2023-02-21T11:24:26.680Z,887.00
2023-02-21T11:25:27.161Z,880.00
2023-02-21T11:35:26.620Z,734.00
2023-02-21T11:42:26.512Z,668.00
2023-02-21T11:43:26.526Z,660.00
2023-02-21T11:44:26.487Z,649.00
2023-02-21T11:46:26.956Z,627.00
2023-02-21T11:54:26.394Z,579.00
2023-02-21T11:57:26.367Z,564.00
2023-02-21T11:58:27.317Z,564.00
2023-02-21T12:00:26.334Z,560.00
2023-02-21T12:01:26.687Z,557.00
2023-02-21T12:02:26.700Z,554.00
2023-02-21T12:03:26.316Z,554.00
2023-02-21T12:08:26.264Z,543.00
2023-02-21T12:09:26.275Z,540.00
2023-02-21T12:10:26.253Z,536.00
2023-02-21T12:12:26.648Z,528.00
2023-02-21T12:17:26.178Z,521.00
2023-02-21T12:18:26.171Z,518.00
2023-02-21T12:21:26.149Z,510.00
2023-02-21T12:23:26.144Z,507.00
2023-02-21T12:25:26.112Z,508.00
2023-02-21T12:28:26.080Z,500.00
2023-02-21T12:30:26.078Z,500.00
2023-02-21T12:32:26.168Z,499.00
2023-02-21T12:36:26.170Z,496.00
2023-02-21T12:45:25.932Z,486.00
2023-02-21T12:48:26.789Z,485.00
2023-02-21T12:49:25.901Z,484.00
2023-02-21T12:51:26.877Z,482.00
2023-02-21T12:58:25.812Z,551.00
2023-02-21T13:20:25.604Z,580.00
2023-02-21T13:28:25.536Z,587.00
2023-02-21T13:51:25.321Z,603.00
2023-02-21T14:10:25.141Z,630.00
2023-02-21T14:24:25.215Z,634.00
2023-02-21T14:25:25.003Z,635.00
2023-02-21T14:27:24.986Z,633.00
2023-02-21T14:28:25.027Z,633.00
2023-02-21T14:29:25.081Z,633.00
2023-02-21T14:30:24.985Z,633.00
2023-02-21T14:31:25.006Z,635.00
2023-02-21T14:32:24.981Z,634.00
2023-02-21T14:33:24.935Z,635.00
2023-02-21T14:34:24.923Z,636.00
2023-02-21T14:36:24.920Z,636.00
2023-02-21T14:37:24.896Z,639.00
2023-02-21T14:39:24.885Z,642.00
2023-02-21T14:40:24.871Z,641.00
2023-02-21T14:41:24.882Z,637.00
2023-02-21T14:42:24.876Z,636.00
2023-02-21T14:44:24.839Z,639.00
2023-02-21T14:46:24.834Z,640.00
2023-02-21T14:47:24.837Z,641.00
2023-02-21T14:49:24.782Z,641.00
2023-02-21T14:50:25.238Z,641.00
2023-02-21T14:51:24.781Z,641.00
2023-02-21T14:52:24.761Z,639.00
2023-02-21T14:53:24.753Z,639.00
2023-02-21T14:54:24.743Z,641.00
2023-02-21T14:57:24.705Z,642.00
2023-02-21T14:58:24.713Z,643.00
2023-02-21T14:59:24.691Z,644.00
2023-02-21T15:00:24.714Z,645.00
2023-02-21T15:01:24.739Z,647.00
2023-02-21T15:02:24.665Z,644.00
2023-02-21T15:03:24.678Z,643.00
2023-02-21T15:04:24.718Z,642.00
2023-02-21T15:05:24.631Z,640.00
2023-02-21T15:06:24.623Z,643.00
2023-02-21T15:07:24.617Z,643.00
2023-02-21T15:08:24.609Z,648.00
2023-02-21T15:09:24.592Z,648.00
2023-02-21T15:10:24.717Z,648.00
2023-02-21T15:11:26.151Z,651.00
2023-02-21T15:12:24.571Z,652.00
2023-02-21T15:13:24.591Z,652.00
2023-02-21T15:14:24.568Z,651.00
2023-02-21T15:15:25.170Z,651.00
2023-02-21T15:16:24.545Z,651.00
2023-02-21T15:17:24.514Z,649.00
2023-02-21T15:18:24.506Z,648.00
2023-02-21T15:19:24.520Z,644.00
2023-02-21T15:20:24.719Z,643.00
2023-02-21T15:21:24.482Z,642.00
2023-02-21T15:22:25.293Z,643.00
2023-02-21T15:23:24.458Z,646.00
2023-02-21T15:24:24.447Z,645.00
2023-02-21T15:25:24.452Z,644.00
2023-02-21T15:26:24.742Z,644.00
2023-02-21T15:27:24.452Z,643.00
2023-02-21T15:28:24.408Z,643.00
2023-02-21T15:29:24.413Z,642.00
2023-02-21T15:30:24.789Z,644.00
2023-02-21T15:31:24.404Z,647.00
2023-02-21T15:32:24.385Z,648.00
2023-02-21T15:33:24.368Z,649.00
2023-02-21T15:34:24.369Z,648.00
2023-02-21T15:35:24.370Z,647.00
2023-02-21T15:36:24.384Z,648.00
2023-02-21T15:37:24.333Z,646.00
2023-02-21T15:38:24.321Z,647.00
2023-02-21T15:39:24.314Z,650.00
2023-02-21T15:40:24.320Z,654.00
2023-02-21T15:41:24.739Z,657.00
2023-02-21T15:42:24.282Z,656.00
2023-02-21T15:43:24.265Z,653.00
2023-02-21T15:44:24.266Z,653.00
2023-02-21T15:45:24.254Z,654.00
2023-02-21T15:47:24.230Z,651.00
2023-02-21T15:48:24.219Z,652.00
2023-02-21T15:49:24.219Z,652.00
2023-02-21T15:50:24.223Z,651.00
2023-02-21T15:51:24.227Z,654.00
2023-02-21T15:52:24.203Z,651.00
2023-02-21T15:53:24.176Z,648.00
2023-02-21T15:54:24.161Z,648.00
2023-02-21T15:55:24.163Z,647.00
2023-02-21T15:56:24.152Z,648.00
2023-02-21T15:57:24.151Z,649.00
2023-02-21T15:58:24.129Z,649.00
2023-02-21T15:59:24.122Z,647.00
2023-02-21T16:00:24.135Z,644.00
2023-02-21T16:01:24.151Z,644.00
2023-02-21T16:02:24.173Z,647.00
2023-02-21T16:03:24.082Z,648.00
2023-02-21T16:04:24.067Z,648.00
2023-02-21T16:05:24.056Z,648.00
2023-02-21T16:06:24.128Z,645.00
2023-02-21T16:07:24.064Z,646.00